sensor_id;sensor_type;location;lat;lon;timestamp;pressure;altitude;pressure_sealevel;temperature;humidity
11343;BME280;5726;42.160;24.746;2023-04-24T00:00:15;99418.91;;;14.79;71.24
11343;BME280;5726;42.160;24.746;2023-04-24T00:02:41;99421.75;;;14.82;71.30
11343;BME280;5726;42.160;24.746;2023-04-24T00:05:12;99414.94;;;14.60;72.30
11343;BME280;5726;42.160;24.746;2023-04-24T00:07:37;99413.66;;;14.66;72.54
11343;BME280;5726;42.160;24.746;2023-04-24T00:10:03;99412.72;;;14.79;71.95
11343;BME280;5726;42.160;24.746;2023-04-24T00:12:28;99426.50;;;14.60;72.72
11343;BME280;5726;42.160;24.746;2023-04-24T00:14:54;99422.88;;;14.65;72.61
11343;BME280;5726;42.160;24.746;2023-04-24T00:17:20;99423.06;;;14.68;72.31
11343;BME280;5726;42.160;24.746;2023-04-24T00:19:47;99419.06;;;14.49;72.66
11343;BME280;5726;42.160;24.746;2023-04-24T00:22:12;99417.94;;;13.94;75.33
11343;BME280;5726;42.160;24.746;2023-04-24T00:24:39;99419.19;;;13.88;76.36
11343;BME280;5726;42.160;24.746;2023-04-24T00:27:04;99420.44;;;13.83;76.90
11343;BME280;5726;42.160;24.746;2023-04-24T00:29:30;99411.94;;;13.97;76.75
11343;BME280;5726;42.160;24.746;2023-04-24T00:31:55;99414.97;;;14.04;75.92
11343;BME280;5726;42.160;24.746;2023-04-24T00:34:21;99409.69;;;13.99;76.55
11343;BME280;5726;42.160;24.746;2023-04-24T00:36:46;99407.53;;;13.71;78.29
11343;BME280;5726;42.160;24.746;2023-04-24T00:39:14;99406.38;;;13.55;79.16
11343;BME280;5726;42.160;24.746;2023-04-24T00:41:39;99412.13;;;13.71;79.02
11343;BME280;5726;42.160;24.746;2023-04-24T00:44:05;99405.97;;;13.79;78.88
11343;BME280;5726;42.160;24.746;2023-04-24T00:46:31;99413.19;;;13.91;78.57
11343;BME280;5726;42.160;24.746;2023-04-24T00:48:58;99405.56;;;13.93;78.42
11343;BME280;5726;42.160;24.746;2023-04-24T00:51:24;99407.72;;;14.13;76.35
11343;BME280;5726;42.160;24.746;2023-04-24T00:53:50;99409.81;;;13.86;77.83
11343;BME280;5726;42.160;24.746;2023-04-24T00:56:16;99420.22;;;13.71;79.17
11343;BME280;5726;42.160;24.746;2023-04-24T00:58:42;99409.81;;;13.86;78.70
11343;BME280;5726;42.160;24.746;2023-04-24T01:01:09;99406.16;;;14.29;75.72
11343;BME280;5726;42.160;24.746;2023-04-24T01:03:35;99413.28;;;14.17;76.15
11343;BME280;5726;42.160;24.746;2023-04-24T01:06:02;99411.66;;;13.69;78.89
11343;BME280;5726;42.160;24.746;2023-04-24T01:08:29;99414.16;;;13.65;79.61
11343;BME280;5726;42.160;24.746;2023-04-24T01:10:56;99416.66;;;13.84;79.61
11343;BME280;5726;42.160;24.746;2023-04-24T01:13:23;99406.47;;;13.81;79.87
11343;BME280;5726;42.160;24.746;2023-04-24T01:15:49;99410.63;;;13.95;79.25
11343;BME280;5726;42.160;24.746;2023-04-24T01:18:15;99395.75;;;13.97;78.86
11343;BME280;5726;42.160;24.746;2023-04-24T01:20:42;99399.63;;;14.05;78.44
11343;BME280;5726;42.160;24.746;2023-04-24T01:23:08;99403.38;;;14.04;78.19
11343;BME280;5726;42.160;24.746;2023-04-24T01:25:34;99399.28;;;14.06;78.01
11343;BME280;5726;42.160;24.746;2023-04-24T01:28:00;99402.97;;;14.10;77.86
11343;BME280;5726;42.160;24.746;2023-04-24T01:30:26;99410.88;;;14.07;78.29
11343;BME280;5726;42.160;24.746;2023-04-24T01:32:53;99414.16;;;13.95;78.78
11343;BME280;5726;42.160;24.746;2023-04-24T01:35:19;99409.69;;;13.99;78.45
11343;BME280;5726;42.160;24.746;2023-04-24T01:37:45;99414.47;;;14.02;78.72
11343;BME280;5726;42.160;24.746;2023-04-24T01:40:10;99414.25;;;14.29;77.24
11343;BME280;5726;42.160;24.746;2023-04-24T01:42:36;99415.09;;;13.99;78.72
11343;BME280;5726;42.160;24.746;2023-04-24T01:45:03;99412.00;;;14.14;77.59
11343;BME280;5726;42.160;24.746;2023-04-24T01:47:30;99409.06;;;14.02;78.25
11343;BME280;5726;42.160;24.746;2023-04-24T01:49:55;99403.50;;;13.90;78.66
11343;BME280;5726;42.160;24.746;2023-04-24T01:52:21;99410.09;;;14.06;78.26
11343;BME280;5726;42.160;24.746;2023-04-24T01:54:46;99412.13;;;13.71;79.42
11343;BME280;5726;42.160;24.746;2023-04-24T01:57:13;99418.59;;;13.61;80.45
11343;BME280;5726;42.160;24.746;2023-04-24T01:59:39;99408.75;;;13.57;80.69
11343;BME280;5726;42.160;24.746;2023-04-24T02:02:05;99407.72;;;13.44;81.16
11343;BME280;5726;42.160;24.746;2023-04-24T02:04:31;99410.69;;;13.35;81.54
11343;BME280;5726;42.160;24.746;2023-04-24T02:06:56;99407.69;;;13.36;80.87
11343;BME280;5726;42.160;24.746;2023-04-24T02:09:21;99407.56;;;13.19;82.30
11343;BME280;5726;42.160;24.746;2023-04-24T02:11:47;99402.63;;;12.91;83.66
11343;BME280;5726;42.160;24.746;2023-04-24T02:14:12;99400.53;;;12.66;85.84
11343;BME280;5726;42.160;24.746;2023-04-24T02:16:38;99392.13;;;13.03;83.42
11343;BME280;5726;42.160;24.746;2023-04-24T02:19:04;99393.69;;;12.60;86.43
11343;BME280;5726;42.160;24.746;2023-04-24T02:21:29;99388.66;;;12.67;86.12
11343;BME280;5726;42.160;24.746;2023-04-24T02:23:56;99392.16;;;12.68;86.54
11343;BME280;5726;42.160;24.746;2023-04-24T02:26:22;99386.00;;;12.89;85.94
11343;BME280;5726;42.160;24.746;2023-04-24T02:28:47;99384.03;;;13.03;84.99
11343;BME280;5726;42.160;24.746;2023-04-24T02:31:13;99383.44;;;13.06;84.36
11343;BME280;5726;42.160;24.746;2023-04-24T02:33:38;99384.09;;;13.11;83.91
11343;BME280;5726;42.160;24.746;2023-04-24T02:36:04;99380.97;;;13.18;83.68
11343;BME280;5726;42.160;24.746;2023-04-24T02:38:29;99373.41;;;13.28;83.74
11343;BME280;5726;42.160;24.746;2023-04-24T02:40:55;99379.09;;;13.18;83.33
11343;BME280;5726;42.160;24.746;2023-04-24T02:43:20;99379.34;;;13.08;83.71
11343;BME280;5726;42.160;24.746;2023-04-24T02:45:46;99377.00;;;13.15;83.32
11343;BME280;5726;42.160;24.746;2023-04-24T02:48:11;99381.88;;;13.35;83.32
11343;BME280;5726;42.160;24.746;2023-04-24T02:50:37;99382.13;;;13.25;82.87
11343;BME280;5726;42.160;24.746;2023-04-24T02:53:02;99381.25;;;13.38;81.43
11343;BME280;5726;42.160;24.746;2023-04-24T02:55:28;99380.66;;;13.19;82.94
11343;BME280;5726;42.160;24.746;2023-04-24T02:57:53;99385.03;;;13.37;81.67
11343;BME280;5726;42.160;24.746;2023-04-24T03:00:19;99380.09;;;13.31;82.43
11343;BME280;5726;42.160;24.746;2023-04-24T03:02:45;99384.09;;;13.11;83.41
11343;BME280;5726;42.160;24.746;2023-04-24T03:05:10;99389.47;;;13.33;82.48
11343;BME280;5726;42.160;24.746;2023-04-24T03:07:37;99379.81;;;13.10;83.25
11343;BME280;5726;42.160;24.746;2023-04-24T03:10:03;99385.66;;;13.34;82.34
11343;BME280;5726;42.160;24.746;2023-04-24T03:12:30;99386.25;;;13.01;83.56
11343;BME280;5726;42.160;24.746;2023-04-24T03:14:55;99383.63;;;13.09;83.74
11343;BME280;5726;42.160;24.746;2023-04-24T03:17:20;99389.63;;;13.06;83.00
11343;BME280;5726;42.160;24.746;2023-04-24T03:19:46;99384.84;;;13.03;83.36
11343;BME280;5726;42.160;24.746;2023-04-24T03:22:11;99387.78;;;13.15;83.03
11343;BME280;5726;42.160;24.746;2023-04-24T03:24:37;99393.25;;;13.32;82.26
11343;BME280;5726;42.160;24.746;2023-04-24T03:27:02;99393.16;;;13.45;80.48
11343;BME280;5726;42.160;24.746;2023-04-24T03:29:28;99401.19;;;13.37;80.70
11343;BME280;5726;42.160;24.746;2023-04-24T03:31:53;99390.69;;;13.27;80.53
11343;BME280;5726;42.160;24.746;2023-04-24T03:34:19;99398.41;;;13.20;81.43
11343;BME280;5726;42.160;24.746;2023-04-24T03:36:44;99399.91;;;12.83;83.56
11343;BME280;5726;42.160;24.746;2023-04-24T03:39:12;99399.09;;;13.04;83.24
11343;BME280;5726;42.160;24.746;2023-04-24T03:41:38;99408.41;;;13.20;82.56
11343;BME280;5726;42.160;24.746;2023-04-24T03:44:03;99408.44;;;13.28;82.33
11343;BME280;5726;42.160;24.746;2023-04-24T03:46:29;99394.56;;;13.43;81.74
11343;BME280;5726;42.160;24.746;2023-04-24T03:48:54;99393.84;;;13.51;80.90
11343;BME280;5726;42.160;24.746;2023-04-24T03:51:20;99396.22;;;13.52;81.92
11343;BME280;5726;42.160;24.746;2023-04-24T03:53:46;99394.22;;;13.66;81.36
11343;BME280;5726;42.160;24.746;2023-04-24T03:56:11;99391.03;;;14.03;79.72
11343;BME280;5726;42.160;24.746;2023-04-24T03:58:36;99398.75;;;14.43;77.16
11343;BME280;5726;42.160;24.746;2023-04-24T04:01:02;99395.88;;;14.31;77.33
11343;BME280;5726;42.160;24.746;2023-04-24T04:03:27;99397.63;;;14.78;75.77
11343;BME280;5726;42.160;24.746;2023-04-24T04:05:53;99396.06;;;14.93;74.89
11343;BME280;5726;42.160;24.746;2023-04-24T04:08:19;99405.09;;;14.97;75.31
11343;BME280;5726;42.160;24.746;2023-04-24T04:10:45;99408.22;;;15.33;74.34
11343;BME280;5726;42.160;24.746;2023-04-24T04:13:10;99415.19;;;15.51;73.53
11343;BME280;5726;42.160;24.746;2023-04-24T04:15:36;99421.16;;;15.65;73.10
11343;BME280;5726;42.160;24.746;2023-04-24T04:18:01;99415.13;;;15.68;71.90
11343;BME280;5726;42.160;24.746;2023-04-24T04:20:27;99421.25;;;15.93;69.92
11343;BME280;5726;42.160;24.746;2023-04-24T04:22:52;99424.91;;;16.18;68.56
11343;BME280;5726;42.160;24.746;2023-04-24T04:25:17;99427.72;;;16.38;68.16
11343;BME280;5726;42.160;24.746;2023-04-24T04:27:47;99425.25;;;16.45;67.42
11343;BME280;5726;42.160;24.746;2023-04-24T04:30:16;99420.41;;;16.59;67.13
11343;BME280;5726;42.160;24.746;2023-04-24T04:32:43;99432.13;;;16.42;66.93
11343;BME280;5726;42.160;24.746;2023-04-24T04:35:09;99424.75;;;16.92;68.73
11343;BME280;5726;42.160;24.746;2023-04-24T04:37:34;99420.72;;;16.98;68.11
11343;BME280;5726;42.160;24.746;2023-04-24T04:40:00;99423.88;;;17.20;64.71
11343;BME280;5726;42.160;24.746;2023-04-24T04:42:27;99422.41;;;17.55;62.88
11343;BME280;5726;42.160;24.746;2023-04-24T04:44:53;99423.34;;;17.59;61.81
11343;BME280;5726;42.160;24.746;2023-04-24T04:47:21;99426.00;;;17.91;61.42
11343;BME280;5726;42.160;24.746;2023-04-24T04:49:49;99430.50;;;18.11;60.02
11343;BME280;5726;42.160;24.746;2023-04-24T04:52:17;99435.28;;;18.14;60.23
11343;BME280;5726;42.160;24.746;2023-04-24T04:54:42;99429.38;;;18.00;60.39
11343;BME280;5726;42.160;24.746;2023-04-24T04:57:08;99427.47;;;18.12;59.90
11343;BME280;5726;42.160;24.746;2023-04-24T04:59:34;99417.06;;;18.38;59.38
11343;BME280;5726;42.160;24.746;2023-04-24T05:01:59;99421.72;;;18.14;59.67
11343;BME280;5726;42.160;24.746;2023-04-24T05:04:25;99414.56;;;18.45;60.51
11343;BME280;5726;42.160;24.746;2023-04-24T05:06:51;99419.28;;;18.71;59.12
11343;BME280;5726;42.160;24.746;2023-04-24T05:09:17;99411.97;;;18.48;58.86
11343;BME280;5726;42.160;24.746;2023-04-24T05:11:42;99414.50;;;17.50;61.03
11343;BME280;5726;42.160;24.746;2023-04-24T05:14:08;99409.84;;;16.86;64.07
11343;BME280;5726;42.160;24.746;2023-04-24T05:16:34;99409.44;;;16.96;64.53
11343;BME280;5726;42.160;24.746;2023-04-24T05:18:59;99410.94;;;16.85;64.29
11343;BME280;5726;42.160;24.746;2023-04-24T05:21:25;99402.69;;;17.02;63.97
11343;BME280;5726;42.160;24.746;2023-04-24T05:23:50;99398.31;;;17.09;63.99
11343;BME280;5726;42.160;24.746;2023-04-24T05:26:16;99395.28;;;17.11;64.05
11343;BME280;5726;42.160;24.746;2023-04-24T05:28:41;99400.44;;;17.24;63.39
11343;BME280;5726;42.160;24.746;2023-04-24T05:31:07;99396.47;;;17.01;63.37
11343;BME280;5726;42.160;24.746;2023-04-24T05:33:32;99387.72;;;16.64;65.27
11343;BME280;5726;42.160;24.746;2023-04-24T05:35:57;99391.94;;;16.53;66.04
11343;BME280;5726;42.160;24.746;2023-04-24T05:38:23;99386.41;;;16.70;65.79
11343;BME280;5726;42.160;24.746;2023-04-24T05:40:48;99379.88;;;16.71;65.89
11343;BME280;5726;42.160;24.746;2023-04-24T05:43:14;99376.66;;;16.89;65.76
11343;BME280;5726;42.160;24.746;2023-04-24T05:45:39;99376.44;;;16.94;65.93
11343;BME280;5726;42.160;24.746;2023-04-24T05:48:05;99389.03;;;17.10;66.12
11343;BME280;5726;42.160;24.746;2023-04-24T05:50:31;99392.09;;;17.29;64.70
11343;BME280;5726;42.160;24.746;2023-04-24T05:52:56;99392.13;;;17.53;63.75
11343;BME280;5726;42.160;24.746;2023-04-24T05:55:25;99385.41;;;17.26;64.91
11343;BME280;5726;42.160;24.746;2023-04-24T05:57:51;99378.28;;;17.22;65.67
11343;BME280;5726;42.160;24.746;2023-04-24T06:00:16;99385.97;;;17.00;66.87
11343;BME280;5726;42.160;24.746;2023-04-24T06:02:44;99379.53;;;17.04;66.73
11343;BME280;5726;42.160;24.746;2023-04-24T06:05:10;99378.91;;;17.19;67.23
11343;BME280;5726;42.160;24.746;2023-04-24T06:07:36;99384.78;;;16.89;68.22
11343;BME280;5726;42.160;24.746;2023-04-24T06:10:01;99392.19;;;17.00;69.04
11343;BME280;5726;42.160;24.746;2023-04-24T06:12:27;99400.66;;;17.31;68.03
11343;BME280;5726;42.160;24.746;2023-04-24T06:14:53;99394.88;;;17.76;67.04
11343;BME280;5726;42.160;24.746;2023-04-24T06:17:19;99392.75;;;17.70;67.13
11343;BME280;5726;42.160;24.746;2023-04-24T06:19:44;99390.94;;;17.98;65.51
11343;BME280;5726;42.160;24.746;2023-04-24T06:22:10;99383.63;;;18.22;64.89
11343;BME280;5726;42.160;24.746;2023-04-24T06:24:35;99389.84;;;18.22;64.55
11343;BME280;5726;42.160;24.746;2023-04-24T06:27:01;99390.16;;;18.09;63.72
11343;BME280;5726;42.160;24.746;2023-04-24T06:29:27;99394.63;;;18.53;62.76
11343;BME280;5726;42.160;24.746;2023-04-24T06:31:52;99385.66;;;18.37;62.71
11343;BME280;5726;42.160;24.746;2023-04-24T06:34:18;99385.88;;;18.20;64.04
11343;BME280;5726;42.160;24.746;2023-04-24T06:36:44;99391.06;;;17.89;64.76
11343;BME280;5726;42.160;24.746;2023-04-24T06:39:09;99403.28;;;17.95;65.25
11343;BME280;5726;42.160;24.746;2023-04-24T06:41:35;99396.72;;;18.20;65.02
11343;BME280;5726;42.160;24.746;2023-04-24T06:44:00;99385.38;;;18.54;64.09
11343;BME280;5726;42.160;24.746;2023-04-24T06:46:26;99391.94;;;18.53;64.01
11343;BME280;5726;42.160;24.746;2023-04-24T06:48:53;99388.41;;;18.64;64.41
11343;BME280;5726;42.160;24.746;2023-04-24T06:51:25;99388.41;;;19.03;63.64
11343;BME280;5726;42.160;24.746;2023-04-24T06:53:54;99389.59;;;19.17;62.64
11343;BME280;5726;42.160;24.746;2023-04-24T06:56:21;99388.34;;;19.15;62.31
11343;BME280;5726;42.160;24.746;2023-04-24T06:58:47;99388.81;;;19.17;61.76
11343;BME280;5726;42.160;24.746;2023-04-24T07:01:13;99392.50;;;18.58;63.67
11343;BME280;5726;42.160;24.746;2023-04-24T07:03:39;99394.31;;;18.93;62.41
11343;BME280;5726;42.160;24.746;2023-04-24T07:06:05;99395.88;;;19.06;62.42
11343;BME280;5726;42.160;24.746;2023-04-24T07:08:30;99398.09;;;19.16;61.36
11343;BME280;5726;42.160;24.746;2023-04-24T07:10:56;99406.56;;;19.42;59.61
11343;BME280;5726;42.160;24.746;2023-04-24T07:13:22;99400.25;;;19.38;59.50
11343;BME280;5726;42.160;24.746;2023-04-24T07:15:48;99404.06;;;19.64;59.18
11343;BME280;5726;42.160;24.746;2023-04-24T07:18:16;99412.25;;;19.79;57.62
11343;BME280;5726;42.160;24.746;2023-04-24T07:20:42;99408.00;;;19.66;57.10
11343;BME280;5726;42.160;24.746;2023-04-24T07:23:07;99398.03;;;19.70;58.15
11343;BME280;5726;42.160;24.746;2023-04-24T07:25:33;99387.28;;;19.47;57.97
11343;BME280;5726;42.160;24.746;2023-04-24T07:27:58;99399.41;;;19.65;57.68
11343;BME280;5726;42.160;24.746;2023-04-24T07:30:24;99406.19;;;19.86;56.83
11343;BME280;5726;42.160;24.746;2023-04-24T07:32:50;99407.09;;;20.05;56.16
11343;BME280;5726;42.160;24.746;2023-04-24T07:35:15;99401.72;;;20.24;55.87
11343;BME280;5726;42.160;24.746;2023-04-24T07:37:41;99405.59;;;20.42;55.38
11343;BME280;5726;42.160;24.746;2023-04-24T07:40:12;99399.16;;;20.15;56.79
11343;BME280;5726;42.160;24.746;2023-04-24T07:42:37;99404.16;;;20.29;55.85
11343;BME280;5726;42.160;24.746;2023-04-24T07:45:03;99392.97;;;20.34;55.24
11343;BME280;5726;42.160;24.746;2023-04-24T07:47:29;99400.25;;;20.98;54.77
11343;BME280;5726;42.160;24.746;2023-04-24T07:49:55;99397.53;;;20.98;54.46
11343;BME280;5726;42.160;24.746;2023-04-24T07:52:20;99387.91;;;21.04;53.69
11343;BME280;5726;42.160;24.746;2023-04-24T07:54:45;99392.22;;;20.86;53.76
11343;BME280;5726;42.160;24.746;2023-04-24T07:57:11;99394.03;;;20.63;54.51
11343;BME280;5726;42.160;24.746;2023-04-24T07:59:36;99378.91;;;21.00;53.74
11343;BME280;5726;42.160;24.746;2023-04-24T08:02:02;99375.16;;;21.08;53.83
11343;BME280;5726;42.160;24.746;2023-04-24T08:04:27;99379.31;;;21.02;53.92
11343;BME280;5726;42.160;24.746;2023-04-24T08:06:53;99374.88;;;20.41;55.21
11343;BME280;5726;42.160;24.746;2023-04-24T08:09:18;99379.25;;;20.46;55.14
11343;BME280;5726;42.160;24.746;2023-04-24T08:11:44;99379.25;;;20.46;55.49
11343;BME280;5726;42.160;24.746;2023-04-24T08:14:10;99386.50;;;20.23;56.67
11343;BME280;5726;42.160;24.746;2023-04-24T08:16:37;99373.28;;;20.40;56.47
11343;BME280;5726;42.160;24.746;2023-04-24T08:19:03;99377.28;;;20.46;56.11
11343;BME280;5726;42.160;24.746;2023-04-24T08:21:28;99376.53;;;20.46;56.06
11343;BME280;5726;42.160;24.746;2023-04-24T08:23:54;99367.72;;;20.18;56.78
11343;BME280;5726;42.160;24.746;2023-04-24T08:26:19;99362.91;;;20.12;57.47
11343;BME280;5726;42.160;24.746;2023-04-24T08:28:45;99361.88;;;20.35;56.99
11343;BME280;5726;42.160;24.746;2023-04-24T08:31:10;99367.63;;;20.14;58.16
11343;BME280;5726;42.160;24.746;2023-04-24T08:33:36;99353.00;;;20.38;59.13
11343;BME280;5726;42.160;24.746;2023-04-24T08:36:05;99348.09;;;20.28;59.43
11343;BME280;5726;42.160;24.746;2023-04-24T08:38:31;99358.44;;;20.38;59.10
11343;BME280;5726;42.160;24.746;2023-04-24T08:40:58;99347.31;;;20.27;58.52
11343;BME280;5726;42.160;24.746;2023-04-24T08:43:25;99340.25;;;20.61;58.09
11343;BME280;5726;42.160;24.746;2023-04-24T08:45:52;99339.84;;;20.77;57.81
11343;BME280;5726;42.160;24.746;2023-04-24T08:48:18;99328.94;;;20.96;57.57
11343;BME280;5726;42.160;24.746;2023-04-24T08:50:44;99338.97;;;20.55;58.31
11343;BME280;5726;42.160;24.746;2023-04-24T08:53:10;99332.94;;;20.46;58.29
11343;BME280;5726;42.160;24.746;2023-04-24T08:55:37;99317.75;;;20.63;58.31
11343;BME280;5726;42.160;24.746;2023-04-24T08:58:03;99333.91;;;20.19;59.16
11343;BME280;5726;42.160;24.746;2023-04-24T09:00:29;99325.66;;;20.34;59.50
11343;BME280;5726;42.160;24.746;2023-04-24T09:02:56;99327.06;;;20.62;58.74
11343;BME280;5726;42.160;24.746;2023-04-24T09:05:22;99314.97;;;20.79;57.52
11343;BME280;5726;42.160;24.746;2023-04-24T09:07:54;99314.44;;;20.55;59.00
11343;BME280;5726;42.160;24.746;2023-04-24T09:10:24;99303.41;;;20.48;59.93
11343;BME280;5726;42.160;24.746;2023-04-24T09:12:51;99316.41;;;20.73;59.32
11343;BME280;5726;42.160;24.746;2023-04-24T09:15:20;99310.91;;;20.69;59.81
11343;BME280;5726;42.160;24.746;2023-04-24T09:17:47;99313.41;;;20.78;58.75
11343;BME280;5726;42.160;24.746;2023-04-24T09:20:12;99304.53;;;20.65;58.25
11343;BME280;5726;42.160;24.746;2023-04-24T09:22:38;99306.53;;;20.84;57.84
11343;BME280;5726;42.160;24.746;2023-04-24T09:25:08;99309.09;;;20.77;58.77
11343;BME280;5726;42.160;24.746;2023-04-24T09:27:34;99306.63;;;20.91;58.54
11343;BME280;5726;42.160;24.746;2023-04-24T09:30:01;99303.84;;;20.68;58.83
11343;BME280;5726;42.160;24.746;2023-04-24T09:32:27;99307.69;;;20.30;59.70
11343;BME280;5726;42.160;24.746;2023-04-24T09:35:09;99296.84;;;20.67;59.22
11343;BME280;5726;42.160;24.746;2023-04-24T09:37:37;99290.22;;;20.87;59.10
11343;BME280;5726;42.160;24.746;2023-04-24T09:40:18;99292.94;;;21.06;58.57
11343;BME280;5726;42.160;24.746;2023-04-24T09:42:45;99281.88;;;20.99;57.91
11343;BME280;5726;42.160;24.746;2023-04-24T09:45:11;99287.91;;;20.89;57.94
11343;BME280;5726;42.160;24.746;2023-04-24T09:47:38;99293.63;;;20.28;59.97
11343;BME280;5726;42.160;24.746;2023-04-24T09:50:15;99276.53;;;20.65;59.66
11343;BME280;5726;42.160;24.746;2023-04-24T09:52:45;99273.88;;;20.87;59.75
11343;BME280;5726;42.160;24.746;2023-04-24T09:55:16;99266.78;;;20.83;60.99
11343;BME280;5726;42.160;24.746;2023-04-24T09:57:58;99262.63;;;21.11;59.29
11343;BME280;5726;42.160;24.746;2023-04-24T10:00:32;99260.81;;;20.77;58.87
11343;BME280;5726;42.160;24.746;2023-04-24T10:03:05;99260.72;;;20.70;58.39
11343;BME280;5726;42.160;24.746;2023-04-24T10:05:40;99261.63;;;20.78;57.34
11343;BME280;5726;42.160;24.746;2023-04-24T10:08:08;99262.50;;;21.04;57.72
11343;BME280;5726;42.160;24.746;2023-04-24T10:10:36;99265.91;;;20.79;59.37
11343;BME280;5726;42.160;24.746;2023-04-24T10:13:03;99267.13;;;21.00;58.84
11343;BME280;5726;42.160;24.746;2023-04-24T10:15:30;99264.13;;;21.09;58.10
11343;BME280;5726;42.160;24.746;2023-04-24T10:17:57;99263.13;;;20.94;58.25
11343;BME280;5726;42.160;24.746;2023-04-24T10:20:25;99248.09;;;21.04;58.13
11343;BME280;5726;42.160;24.746;2023-04-24T10:22:53;99236.81;;;21.05;58.46
11343;BME280;5726;42.160;24.746;2023-04-24T10:25:20;99238.28;;;20.99;58.85
11343;BME280;5726;42.160;24.746;2023-04-24T10:27:47;99237.84;;;20.97;58.77
11343;BME280;5726;42.160;24.746;2023-04-24T10:30:13;99238.84;;;20.89;59.50
11343;BME280;5726;42.160;24.746;2023-04-24T10:32:39;99229.13;;;20.51;60.91
11343;BME280;5726;42.160;24.746;2023-04-24T10:35:13;99232.78;;;20.58;60.99
11343;BME280;5726;42.160;24.746;2023-04-24T10:37:45;99218.78;;;20.97;59.39
11343;BME280;5726;42.160;24.746;2023-04-24T10:40:12;99220.03;;;20.81;59.85
11343;BME280;5726;42.160;24.746;2023-04-24T10:42:41;99216.09;;;21.01;59.96
11343;BME280;5726;42.160;24.746;2023-04-24T10:45:22;99215.19;;;20.93;59.64
11343;BME280;5726;42.160;24.746;2023-04-24T10:48:08;99208.88;;;20.89;60.04
11343;BME280;5726;42.160;24.746;2023-04-24T10:50:53;99209.00;;;20.96;59.72
11343;BME280;5726;42.160;24.746;2023-04-24T10:53:23;99205.75;;;21.10;59.70
11343;BME280;5726;42.160;24.746;2023-04-24T10:55:51;99195.25;;;20.89;60.00
11343;BME280;5726;42.160;24.746;2023-04-24T10:58:43;99205.19;;;20.78;59.74
11343;BME280;5726;42.160;24.746;2023-04-24T11:03:55;99192.16;;;20.50;61.27
11343;BME280;5726;42.160;24.746;2023-04-24T11:06:32;99188.34;;;20.95;59.83
11343;BME280;5726;42.160;24.746;2023-04-24T11:09:06;99181.91;;;21.29;59.47
11343;BME280;5726;42.160;24.746;2023-04-24T11:11:33;99190.66;;;20.93;59.79
11343;BME280;5726;42.160;24.746;2023-04-24T11:21:55;99179.88;;;21.00;60.09
11343;BME280;5726;42.160;24.746;2023-04-24T11:26:56;99166.47;;;20.69;61.06
11343;BME280;5726;42.160;24.746;2023-04-24T11:29:22;99160.78;;;21.22;59.96
11343;BME280;5726;42.160;24.746;2023-04-24T11:31:48;99153.16;;;21.35;59.86
11343;BME280;5726;42.160;24.746;2023-04-24T11:34:17;99155.38;;;21.26;59.75
11343;BME280;5726;42.160;24.746;2023-04-24T11:36:44;99157.34;;;21.29;60.28
11343;BME280;5726;42.160;24.746;2023-04-24T11:39:10;99150.75;;;21.30;60.04
11343;BME280;5726;42.160;24.746;2023-04-24T11:41:36;99157.91;;;21.63;59.57
11343;BME280;5726;42.160;24.746;2023-04-24T11:44:03;99139.63;;;21.67;59.30
11343;BME280;5726;42.160;24.746;2023-04-24T11:46:31;99134.97;;;21.68;59.38
11343;BME280;5726;42.160;24.746;2023-04-24T11:48:57;99136.81;;;21.90;58.34
11343;BME280;5726;42.160;24.746;2023-04-24T11:51:24;99141.41;;;21.82;58.76
11343;BME280;5726;42.160;24.746;2023-04-24T11:53:50;99123.50;;;21.85;58.81
11343;BME280;5726;42.160;24.746;2023-04-24T11:56:19;99118.97;;;21.99;58.29
11343;BME280;5726;42.160;24.746;2023-04-24T11:58:47;99108.78;;;21.93;58.31
11343;BME280;5726;42.160;24.746;2023-04-24T12:01:13;99104.94;;;21.97;58.23
11343;BME280;5726;42.160;24.746;2023-04-24T12:03:38;99111.66;;;21.74;58.84
11343;BME280;5726;42.160;24.746;2023-04-24T12:06:13;99093.34;;;21.74;59.40
11343;BME280;5726;42.160;24.746;2023-04-24T12:08:39;99092.22;;;21.50;59.91
11343;BME280;5726;42.160;24.746;2023-04-24T12:11:06;99086.19;;;21.96;59.16
11343;BME280;5726;42.160;24.746;2023-04-24T12:13:35;99076.13;;;22.03;59.33
11343;BME280;5726;42.160;24.746;2023-04-24T12:16:03;99066.31;;;22.31;58.59
11343;BME280;5726;42.160;24.746;2023-04-24T12:18:30;99073.25;;;22.22;58.32
11343;BME280;5726;42.160;24.746;2023-04-24T12:21:14;99057.41;;;22.05;59.10
11343;BME280;5726;42.160;24.746;2023-04-24T12:23:43;99058.75;;;21.85;60.09
11343;BME280;5726;42.160;24.746;2023-04-24T12:26:08;99048.91;;;22.10;59.63
11343;BME280;5726;42.160;24.746;2023-04-24T12:28:35;99039.63;;;22.18;59.68
11343;BME280;5726;42.160;24.746;2023-04-24T12:31:01;99041.66;;;22.24;59.43
11343;BME280;5726;42.160;24.746;2023-04-24T12:33:27;99032.03;;;22.01;60.34
11343;BME280;5726;42.160;24.746;2023-04-24T12:35:53;99036.31;;;22.02;60.95
11343;BME280;5726;42.160;24.746;2023-04-24T12:38:24;99023.69;;;21.87;61.29
11343;BME280;5726;42.160;24.746;2023-04-24T12:41:05;99014.47;;;22.02;61.01
11343;BME280;5726;42.160;24.746;2023-04-24T12:43:31;99010.78;;;22.20;61.29
11343;BME280;5726;42.160;24.746;2023-04-24T12:45:57;99005.47;;;22.38;61.47
11343;BME280;5726;42.160;24.746;2023-04-24T12:48:27;98999.63;;;22.36;59.86
11343;BME280;5726;42.160;24.746;2023-04-24T12:50:53;99008.00;;;22.17;60.87
11343;BME280;5726;42.160;24.746;2023-04-24T12:53:19;99004.63;;;22.30;61.17
11343;BME280;5726;42.160;24.746;2023-04-24T12:55:44;98998.91;;;22.06;60.57
11343;BME280;5726;42.160;24.746;2023-04-24T12:58:12;98986.31;;;21.95;60.33
11343;BME280;5726;42.160;24.746;2023-04-24T13:00:38;98978.44;;;21.86;60.38
11343;BME280;5726;42.160;24.746;2023-04-24T13:03:04;98998.09;;;22.02;60.53
11343;BME280;5726;42.160;24.746;2023-04-24T13:05:29;98980.69;;;22.17;59.41
11343;BME280;5726;42.160;24.746;2023-04-24T13:07:55;98977.19;;;22.16;59.32
11343;BME280;5726;42.160;24.746;2023-04-24T13:10:20;98985.88;;;22.25;58.76